Time,TemperatureF,DewpointF,PressureIn,WindDirection,WindDirectionDegrees,WindSpeedMPH,WindSpeedGustMPH,Humidity,HourlyPrecipIn,Conditions,Clouds,dailyrainin,SoftwareType,DateUTC
2013-03-13 00:04:00,47.0,45.9,30.15,NNW,343,0.0,0.0,96,0.00,,,0.00,LWC V1.00 B64,2013-03-13 07:04:00,
2013-03-13 00:09:00,47.0,45.9,30.15,NNW,343,0.0,0.0,96,0.00,,,0.00,LWC V1.00 B64,2013-03-13 07:09:00,
2013-03-13 00:14:00,46.9,45.8,30.15,NNW,342,0.0,0.0,96,0.00,,,0.00,LWC V1.00 B64,2013-03-13 07:14:00,
2013-03-13 00:20:00,46.9,45.8,30.15,NNW,342,0.0,0.0,96,0.00,,,0.00,LWC V1.00 B64,2013-03-13 07:20:00,
2013-03-13 00:25:00,46.9,45.8,30.15,NNW,343,0.0,0.0,96,0.00,,,0.00,LWC V1.00 B64,2013-03-13 07:25:00,
2013-03-13 00:30:00,46.8,45.7,30.15,NNW,343,0.0,1.0,96,0.00,,,0.00,LWC V1.00 B64,2013-03-13 07:30:00,
2013-03-13 00:35:00,46.6,45.5,30.15,NNW,343,0.0,0.0,96,0.00,,,0.00,LWC V1.00 B64,2013-03-13 07:35:00,
2013-03-13 00:40:00,46.6,45.5,30.15,NNW,342,0.0,0.0,96,0.00,,,0.00,LWC V1.00 B64,2013-03-13 07:40:00,
2013-03-13 00:45:00,46.7,45.6,30.15,NNW,343,0.0,0.0,96,0.00,,,0.00,LWC V1.00 B64,2013-03-13 07:45:00,
2013-03-13 00:50:00,46.7,45.6,30.15,NNW,344,0.0,1.0,96,0.00,,,0.00,LWC V1.00 B64,2013-03-13 07:50:00,
2013-03-13 00:55:00,46.5,45.4,30.15,NNW,344,0.0,1.0,96,0.00,,,0.00,LWC V1.00 B64,2013-03-13 07:55:00,
2013-03-13 01:00:00,46.4,45.3,30.15,NNW,344,0.0,0.0,96,0.00,,,0.00,LWC V1.00 B64,2013-03-13 08:00:00,
2013-03-13 01:08:00,46.2,45.1,30.15,NNW,344,0.0,0.0,96,0.00,,,0.00,LWC V1.00 B64,2013-03-13 08:08:00,
2013-03-13 01:13:00,46.0,44.9,30.15,NNW,344,0.0,0.0,96,0.00,,,0.00,LWC V1.00 B64,2013-03-13 08:13:00,
2013-03-13 01:19:00,46.0,44.9,30.15,NNW,344,0.0,0.0,96,0.00,,,0.00,LWC V1.00 B64,2013-03-13 08:19:00,
2013-03-13 01:24:00,45.9,44.8,30.15,NNW,344,0.0,0.0,96,0.00,,,0.00,LWC V1.00 B64,2013-03-13 08:24:00,
2013-03-13 01:30:00,45.8,44.7,30.15,NNW,344,0.0,0.0,96,0.00,,,0.00,LWC V1.00 B64,2013-03-13 08:30:00,
2013-03-13 01:35:00,45.8,44.7,30.16,NNW,344,0.0,0.0,96,0.00,,,0.00,LWC V1.00 B64,2013-03-13 08:35:00,
2013-03-13 01:40:00,45.6,44.5,30.16,NNW,344,0.0,0.0,96,0.00,,,0.00,LWC V1.00 B64,2013-03-13 08:40:00,
2013-03-13 01:46:00,45.6,44.8,30.16,NNW,344,0.0,0.0,97,0.00,,,0.00,LWC V1.00 B64,2013-03-13 08:46:00,
2013-03-13 01:51:00,45.7,44.6,30.16,NNW,344,0.0,0.0,96,0.00,,,0.00,LWC V1.00 B64,2013-03-13 08:51:00,
2013-03-13 01:57:00,45.6,44.5,30.16,NNW,344,0.0,0.0,96,0.00,,,0.00,LWC V1.00 B64,2013-03-13 08:57:00,
2013-03-13 02:02:00,45.6,44.5,30.16,NNW,344,0.0,0.0,96,0.00,,,0.00,LWC V1.00 B64,2013-03-13 09:02:00,
2013-03-13 02:07:00,45.6,44.5,30.16,NNW,344,0.0,0.0,96,0.00,,,0.00,LWC V1.00 B64,2013-03-13 09:07:00,
2013-03-13 02:12:00,45.6,44.5,30.16,NNW,344,0.0,0.0,96,0.00,,,0.00,LWC V1.00 B64,2013-03-13 09:12:00,
2013-03-13 02:17:00,45.6,44.5,30.16,NNW,344,0.0,0.0,96,0.00,,,0.00,LWC V1.00 B64,2013-03-13 09:17:00,
2013-03-13 02:22:00,45.7,44.9,30.16,NNW,344,0.0,0.0,97,0.00,,,0.00,LWC V1.00 B64,2013-03-13 09:22:00,
2013-03-13 02:27:00,45.8,45.0,30.16,NNW,344,0.0,0.0,97,0.00,,,0.00,LWC V1.00 B64,2013-03-13 09:27:00,
2013-03-13 02:32:00,45.9,45.1,30.16,NNW,344,0.0,0.0,97,0.00,,,0.00,LWC V1.00 B64,2013-03-13 09:32:00,
2013-03-13 02:37:00,46.0,45.2,30.16,NNW,344,0.0,1.0,97,0.00,,,0.00,LWC V1.00 B64,2013-03-13 09:37:00,
2013-03-13 02:43:00,46.0,45.2,30.16,NNW,344,0.0,0.0,97,0.00,,,0.00,LWC V1.00 B64,2013-03-13 09:43:00,
2013-03-13 02:48:00,46.0,45.2,30.16,NNW,344,0.0,0.0,97,0.00,,,0.00,LWC V1.00 B64,2013-03-13 09:48:00,
2013-03-13 02:53:00,46.0,45.2,30.16,NNW,344,0.0,0.0,97,0.00,,,0.00,LWC V1.00 B64,2013-03-13 09:53:00,
2013-03-13 02:58:00,46.0,45.2,30.16,NNW,344,0.0,0.0,97,0.00,,,0.00,LWC V1.00 B64,2013-03-13 09:58:00,
2013-03-13 03:03:00,46.0,45.2,30.16,NNW,344,0.0,0.0,97,0.00,,,0.00,LWC V1.00 B64,2013-03-13 10:03:00,
2013-03-13 03:08:00,46.0,45.2,30.16,NNW,344,0.0,0.0,97,0.00,,,0.00,LWC V1.00 B64,2013-03-13 10:08:00,
2013-03-13 03:13:00,46.0,45.2,30.16,NNW,344,0.0,0.0,97,0.00,,,0.00,LWC V1.00 B64,2013-03-13 10:13:00,
2013-03-13 03:18:00,45.9,45.1,30.16,NNW,344,0.0,0.0,97,0.00,,,0.00,LWC V1.00 B64,2013-03-13 10:18:00,
2013-03-13 03:23:00,45.9,45.1,30.16,NNW,344,0.0,1.0,97,0.00,,,0.00,LWC V1.00 B64,2013-03-13 10:23:00,
2013-03-13 03:28:00,45.9,45.1,30.17,NNW,344,0.0,0.0,97,0.00,,,0.00,LWC V1.00 B64,2013-03-13 10:28:00,
2013-03-13 03:33:00,45.8,45.0,30.16,NNW,344,0.0,0.0,97,0.00,,,0.00,LWC V1.00 B64,2013-03-13 10:33:00,
2013-03-13 03:38:00,45.8,45.0,30.16,NNW,344,0.0,0.0,97,0.00,,,0.00,LWC V1.00 B64,2013-03-13 10:38:00,
2013-03-13 03:43:00,45.8,45.0,30.16,NNW,344,0.0,1.0,97,0.00,,,0.00,LWC V1.00 B64,2013-03-13 10:43:00,
2013-03-13 03:48:00,45.8,45.0,30.16,NNW,344,1.0,1.0,97,0.00,,,0.00,LWC V1.00 B64,2013-03-13 10:48:00,
2013-03-13 03:53:00,45.7,44.6,30.16,NNW,344,0.0,0.0,96,0.00,,,0.00,LWC V1.00 B64,2013-03-13 10:53:00,
2013-03-13 03:58:00,45.5,44.4,30.16,NNW,344,0.0,0.0,96,0.00,,,0.00,LWC V1.00 B64,2013-03-13 10:58:00,
2013-03-13 04:03:00,45.5,44.4,30.16,NNW,344,0.0,0.0,96,0.00,,,0.00,LWC V1.00 B64,2013-03-13 11:03:00,
2013-03-13 04:08:00,45.4,44.6,30.16,NNW,344,0.0,0.0,97,0.00,,,0.00,LWC V1.00 B64,2013-03-13 11:08:00,
2013-03-13 04:13:00,45.4,44.6,30.16,NNW,344,0.0,0.0,97,0.00,,,0.00,LWC V1.00 B64,2013-03-13 11:13:00,
2013-03-13 04:18:00,45.4,44.6,30.16,NNW,344,0.0,0.0,97,0.00,,,0.00,LWC V1.00 B64,2013-03-13 11:18:00,
2013-03-13 04:23:00,45.4,44.6,30.16,NNW,344,0.0,0.0,97,0.00,,,0.00,LWC V1.00 B64,2013-03-13 11:23:00,
2013-03-13 04:28:00,45.4,44.6,30.16,NNW,344,0.0,0.0,97,0.00,,,0.00,LWC V1.00 B64,2013-03-13 11:28:00,
2013-03-13 04:33:00,45.4,44.6,30.16,NNW,344,0.0,0.0,97,0.00,,,0.00,LWC V1.00 B64,2013-03-13 11:33:00,
2013-03-13 04:38:00,45.5,44.7,30.17,NNW,344,0.0,0.0,97,0.00,,,0.00,LWC V1.00 B64,2013-03-13 11:38:00,
2013-03-13 04:43:00,45.4,44.6,30.16,NNW,344,0.0,0.0,97,0.00,,,0.00,LWC V1.00 B64,2013-03-13 11:43:00,
2013-03-13 04:48:00,45.2,44.4,30.16,NNW,344,0.0,1.0,97,0.00,,,0.00,LWC V1.00 B64,2013-03-13 11:48:00,
2013-03-13 04:53:00,45.0,43.9,30.16,NNW,344,0.0,2.0,96,0.00,,,0.00,LWC V1.00 B64,2013-03-13 11:53:00,
2013-03-13 04:58:00,44.9,43.8,30.15,NNW,344,0.0,0.0,96,0.00,,,0.00,LWC V1.00 B64,2013-03-13 11:58:00,
2013-03-13 05:03:00,44.9,44.1,30.15,NNW,344,0.0,1.0,97,0.00,,,0.00,LWC V1.00 B64,2013-03-13 12:03:00,
2013-03-13 05:08:00,44.9,44.1,30.15,NNW,344,0.0,1.0,97,0.00,,,0.00,LWC V1.00 B64,2013-03-13 12:08:00,
2013-03-13 05:13:00,44.8,44.0,30.15,NNW,338,0.0,3.0,97,0.00,,,0.00,LWC V1.00 B64,2013-03-13 12:13:00,
2013-03-13 05:18:00,44.5,43.7,30.15,NNW,338,0.0,2.0,97,0.00,,,0.00,LWC V1.00 B64,2013-03-13 12:18:00,
2013-03-13 05:23:00,44.2,43.1,30.15,NNW,337,0.0,1.0,96,0.00,,,0.00,LWC V1.00 B64,2013-03-13 12:23:00,
2013-03-13 05:28:00,43.9,42.8,30.15,NNW,338,0.0,2.0,96,0.00,,,0.00,LWC V1.00 B64,2013-03-13 12:28:00,
2013-03-13 05:33:00,43.5,42.4,30.15,SE,146,0.0,1.0,96,0.00,,,0.00,LWC V1.00 B64,2013-03-13 12:33:00,
2013-03-13 05:38:00,43.2,42.1,30.15,SE,146,0.0,0.0,96,0.00,,,0.00,LWC V1.00 B64,2013-03-13 12:38:00,
2013-03-13 05:43:00,43.1,42.0,30.15,SE,146,0.0,0.0,96,0.00,,,0.00,LWC V1.00 B64,2013-03-13 12:43:00,
2013-03-13 05:48:00,42.9,42.1,30.15,SE,146,0.0,0.0,97,0.00,,,0.00,LWC V1.00 B64,2013-03-13 12:48:00,
2013-03-13 05:53:00,42.8,42.0,30.15,SE,146,0.0,1.0,97,0.00,,,0.00,LWC V1.00 B64,2013-03-13 12:53:00,
2013-03-13 05:58:00,42.9,42.1,30.15,SE,146,0.0,1.0,97,0.00,,,0.00,LWC V1.00 B64,2013-03-13 12:58:00,
2013-03-13 06:03:00,43.1,42.3,30.16,SE,146,0.0,1.0,97,0.00,,,0.00,LWC V1.00 B64,2013-03-13 13:03:00,
2013-03-13 06:08:00,43.1,42.3,30.16,SE,146,0.0,0.0,97,0.00,,,0.00,LWC V1.00 B64,2013-03-13 13:08:00,
2013-03-13 06:13:00,43.1,42.3,30.16,SE,146,0.0,0.0,97,0.00,,,0.00,LWC V1.00 B64,2013-03-13 13:13:00,
2013-03-13 06:18:00,43.0,42.2,30.16,SE,146,0.0,0.0,97,0.00,,,0.00,LWC V1.00 B64,2013-03-13 13:18:00,
2013-03-13 06:23:00,42.9,42.1,30.16,SE,146,0.0,0.0,97,0.00,,,0.00,LWC V1.00 B64,2013-03-13 13:23:00,
2013-03-13 06:28:00,42.7,41.9,30.16,SE,146,0.0,0.0,97,0.00,,,0.00,LWC V1.00 B64,2013-03-13 13:28:00,
2013-03-13 06:33:00,42.6,41.5,30.16,SE,146,0.0,1.0,96,0.00,,,0.00,LWC V1.00 B64,2013-03-13 13:33:00,
2013-03-13 06:38:00,42.5,41.4,30.16,SE,146,0.0,1.0,96,0.00,,,0.00,LWC V1.00 B64,2013-03-13 13:38:00,
2013-03-13 06:43:00,42.5,41.7,30.16,SE,146,0.0,2.0,97,0.00,,,0.00,LWC V1.00 B64,2013-03-13 13:43:00,
2013-03-13 06:49:00,42.6,41.8,30.16,SE,146,0.0,1.0,97,0.00,,,0.00,LWC V1.00 B64,2013-03-13 13:49:00,
2013-03-13 06:54:00,42.5,41.7,30.16,SE,146,0.0,0.0,97,0.00,,,0.00,LWC V1.00 B64,2013-03-13 13:54:00,
2013-03-13 06:59:00,42.4,41.6,30.16,SE,146,1.0,1.0,97,0.00,,,0.00,LWC V1.00 B64,2013-03-13 13:59:00,
2013-03-13 07:04:00,42.3,41.5,30.16,SE,146,0.0,0.0,97,0.00,,,0.00,LWC V1.00 B64,2013-03-13 14:04:00,
2013-03-13 07:09:00,42.1,41.0,30.16,SE,146,0.0,0.0,96,0.00,,,0.00,LWC V1.00 B64,2013-03-13 14:09:00,
2013-03-13 07:14:00,41.9,40.8,30.16,SE,146,0.0,0.0,96,0.00,,,0.00,LWC V1.00 B64,2013-03-13 14:14:00,
2013-03-13 07:19:00,41.8,41.0,30.16,SE,146,0.0,0.0,97,0.00,,,0.00,LWC V1.00 B64,2013-03-13 14:19:00,
2013-03-13 07:25:00,41.5,40.4,30.16,SE,146,0.0,0.0,96,0.00,,,0.00,LWC V1.00 B64,2013-03-13 14:25:00,
2013-03-13 07:30:00,41.3,40.2,30.16,SE,146,0.0,0.0,96,0.00,,,0.00,LWC V1.00 B64,2013-03-13 14:30:00,
2013-03-13 07:35:00,41.1,40.0,30.17,SE,146,0.0,0.0,96,0.00,,,0.00,LWC V1.00 B64,2013-03-13 14:35:00,
2013-03-13 07:40:00,41.0,39.9,30.17,SE,146,0.0,0.0,96,0.00,,,0.00,LWC V1.00 B64,2013-03-13 14:40:00,
2013-03-13 07:45:00,40.8,39.7,30.17,SE,146,0.0,0.0,96,0.00,,,0.00,LWC V1.00 B64,2013-03-13 14:45:00,
2013-03-13 07:50:00,40.7,39.9,30.17,SE,146,1.0,2.0,97,0.00,,,0.00,LWC V1.00 B64,2013-03-13 14:50:00,
2013-03-13 07:55:00,40.6,39.8,30.17,SE,146,0.0,0.0,97,0.00,,,0.00,LWC V1.00 B64,2013-03-13 14:55:00,
2013-03-13 08:00:00,40.6,39.8,30.17,SE,146,0.0,0.0,97,0.00,,,0.00,LWC V1.00 B64,2013-03-13 15:00:00,
2013-03-13 08:05:00,40.7,39.9,30.16,SE,145,0.0,1.0,97,0.00,,,0.00,LWC V1.00 B64,2013-03-13 15:05:00,
2013-03-13 08:10:00,40.7,39.9,30.17,SE,146,0.0,0.0,97,0.00,,,0.00,LWC V1.00 B64,2013-03-13 15:10:00,
2013-03-13 08:15:00,40.8,40.0,30.17,SE,146,0.0,0.0,97,0.00,,,0.00,LWC V1.00 B64,2013-03-13 15:15:00,
2013-03-13 08:20:00,41.0,40.2,30.16,SE,145,0.0,0.0,97,0.00,,,0.00,LWC V1.00 B64,2013-03-13 15:20:00,
2013-03-13 08:25:00,41.1,40.3,30.16,SE,145,0.0,0.0,97,0.00,,,0.00,LWC V1.00 B64,2013-03-13 15:25:00,
2013-03-13 08:30:00,41.3,40.5,30.16,SE,146,0.0,0.0,97,0.00,,,0.00,LWC V1.00 B64,2013-03-13 15:30:00,
2013-03-13 08:35:00,41.3,40.5,30.16,SE,146,0.0,0.0,97,0.00,,,0.00,LWC V1.00 B64,2013-03-13 15:35:00,
2013-03-13 08:40:00,41.5,40.7,30.16,SE,146,0.0,0.0,97,0.00,,,0.00,LWC V1.00 B64,2013-03-13 15:40:00,
2013-03-13 08:45:00,41.9,41.1,30.16,SE,146,0.0,1.0,97,0.00,,,0.00,LWC V1.00 B64,2013-03-13 15:45:00,
2013-03-13 08:50:00,42.3,41.5,30.16,SE,146,0.0,0.0,97,0.00,,,0.00,LWC V1.00 B64,2013-03-13 15:50:00,
2013-03-13 08:55:00,42.8,42.0,30.16,SE,146,0.0,0.0,97,0.00,,,0.00,LWC V1.00 B64,2013-03-13 15:55:00,
2013-03-13 09:00:00,43.2,42.4,30.17,SE,145,0.0,0.0,97,0.00,,,0.00,LWC V1.00 B64,2013-03-13 16:00:00,
2013-03-13 09:05:00,43.5,42.7,30.17,SE,146,0.0,1.0,97,0.00,,,0.00,LWC V1.00 B64,2013-03-13 16:05:00,
2013-03-13 09:10:00,44.0,43.2,30.17,SE,146,0.0,0.0,97,0.00,,,0.00,LWC V1.00 B64,2013-03-13 16:10:00,
2013-03-13 09:15:00,44.5,44.0,30.17,SE,146,1.0,2.0,98,0.00,,,0.00,LWC V1.00 B64,2013-03-13 16:15:00,
2013-03-13 09:20:00,44.8,44.0,30.17,NE,44,0.0,3.0,97,0.00,,,0.00,LWC V1.00 B64,2013-03-13 16:20:00,
2013-03-13 09:25:00,45.1,44.3,30.18,North,355,2.0,4.0,97,0.00,,,0.00,LWC V1.00 B64,2013-03-13 16:25:00,
2013-03-13 09:30:00,45.0,44.2,30.17,NNW,345,3.0,4.0,97,0.00,,,0.00,LWC V1.00 B64,2013-03-13 16:30:00,
2013-03-13 09:35:00,45.4,44.6,30.17,NNW,338,0.0,3.0,97,0.00,,,0.00,LWC V1.00 B64,2013-03-13 16:35:00,
2013-03-13 09:40:00,45.8,45.0,30.17,NNW,338,2.0,2.0,97,0.00,,,0.00,LWC V1.00 B64,2013-03-13 16:40:00,
2013-03-13 09:45:00,46.2,45.4,30.17,North,349,2.0,4.0,97,0.00,,,0.00,LWC V1.00 B64,2013-03-13 16:45:00,
2013-03-13 09:50:00,46.8,46.0,30.17,North,349,0.0,1.0,97,0.00,,,0.00,LWC V1.00 B64,2013-03-13 16:50:00,
2013-03-13 09:55:00,46.9,46.1,30.17,North,349,0.0,1.0,97,0.00,,,0.00,LWC V1.00 B64,2013-03-13 16:55:00,
2013-03-13 10:00:00,47.3,46.5,30.17,North,349,0.0,2.0,97,0.00,,,0.00,LWC V1.00 B64,2013-03-13 17:00:00,
2013-03-13 10:05:00,47.8,47.0,30.17,North,349,0.0,1.0,97,0.00,,,0.00,LWC V1.00 B64,2013-03-13 17:05:00,
2013-03-13 10:10:00,48.1,47.3,30.17,North,349,2.0,3.0,97,0.00,,,0.00,LWC V1.00 B64,2013-03-13 17:10:00,
2013-03-13 10:15:00,48.4,47.6,30.17,North,349,2.0,3.0,97,0.00,,,0.00,LWC V1.00 B64,2013-03-13 17:15:00,
2013-03-13 10:20:00,48.8,48.0,30.18,North,349,2.0,3.0,97,0.00,,,0.00,LWC V1.00 B64,2013-03-13 17:20:00,
2013-03-13 10:25:00,49.4,48.6,30.18,North,349,0.0,3.0,97,0.00,,,0.00,LWC V1.00 B64,2013-03-13 17:25:00,
2013-03-13 10:30:00,50.1,49.3,30.18,North,349,0.0,1.0,97,0.00,,,0.00,LWC V1.00 B64,2013-03-13 17:30:00,
2013-03-13 10:35:00,50.7,49.9,30.18,North,349,0.0,1.0,97,0.00,,,0.00,LWC V1.00 B64,2013-03-13 17:35:00,
2013-03-13 10:40:00,51.3,50.5,30.18,North,349,0.0,2.0,97,0.00,,,0.00,LWC V1.00 B64,2013-03-13 17:40:00,
2013-03-13 10:45:00,51.9,51.1,30.17,North,349,0.0,1.0,97,0.00,,,0.00,LWC V1.00 B64,2013-03-13 17:45:00,
2013-03-13 10:50:00,52.6,51.8,30.17,North,349,0.0,0.0,97,0.00,,,0.00,LWC V1.00 B64,2013-03-13 17:50:00,
2013-03-13 10:55:00,53.7,52.9,30.17,NNW,348,0.0,3.0,97,0.00,,,0.00,LWC V1.00 B64,2013-03-13 17:55:00,
2013-03-13 11:00:00,54.7,53.6,30.17,NNW,340,0.0,2.0,96,0.00,,,0.00,LWC V1.00 B64,2013-03-13 18:00:00,
2013-03-13 11:05:00,55.8,54.4,30.16,NNW,340,0.0,1.0,95,0.00,,,0.00,LWC V1.00 B64,2013-03-13 18:05:00,
2013-03-13 11:10:00,56.6,54.6,30.16,NNW,340,0.0,2.0,93,0.00,,,0.00,LWC V1.00 B64,2013-03-13 18:10:00,
2013-03-13 11:15:00,57.2,54.9,30.16,NNW,340,1.0,1.0,92,0.00,,,0.00,LWC V1.00 B64,2013-03-13 18:15:00,
2013-03-13 11:20:00,58.0,55.1,30.17,NNW,340,0.0,1.0,90,0.00,,,0.00,LWC V1.00 B64,2013-03-13 18:20:00,
2013-03-13 11:25:00,59.3,56.1,30.17,NNW,340,0.0,2.0,89,0.00,,,0.00,LWC V1.00 B64,2013-03-13 18:25:00,
2013-03-13 11:30:00,60.2,55.7,30.17,NNW,340,2.0,2.0,85,0.00,,,0.00,LWC V1.00 B64,2013-03-13 18:30:00,
2013-03-13 11:35:00,60.4,54.9,30.16,NNW,340,2.0,3.0,82,0.00,,,0.00,LWC V1.00 B64,2013-03-13 18:35:00,
2013-03-13 11:40:00,60.3,55.1,30.16,NNW,333,4.0,7.0,83,0.00,,,0.00,LWC V1.00 B64,2013-03-13 18:40:00,
2013-03-13 11:45:00,58.9,53.7,30.16,North,349,4.0,7.0,83,0.00,,,0.00,LWC V1.00 B64,2013-03-13 18:45:00,
2013-03-13 11:51:00,58.1,53.6,30.16,NNW,341,2.0,9.0,85,0.00,,,0.00,LWC V1.00 B64,2013-03-13 18:51:00,
2013-03-13 11:56:00,58.3,53.8,30.16,NNW,347,3.0,11.0,85,0.00,,,0.00,LWC V1.00 B64,2013-03-13 18:56:00,
2013-03-13 12:02:00,58.5,54.0,30.16,North,0,6.0,9.0,85,0.00,,,0.00,LWC V1.00 B64,2013-03-13 19:02:00,
2013-03-13 12:07:00,58.4,54.5,30.16,NNW,344,9.0,12.0,87,0.00,,,0.00,LWC V1.00 B64,2013-03-13 19:07:00,
2013-03-13 12:12:00,58.5,54.3,30.15,North,355,6.0,13.0,86,0.00,,,0.00,LWC V1.00 B64,2013-03-13 19:12:00,
2013-03-13 12:17:00,58.6,54.4,30.15,North,355,9.0,13.0,86,0.00,,,0.00,LWC V1.00 B64,2013-03-13 19:17:00,
2013-03-13 12:22:00,58.6,54.4,30.15,North,5,10.0,11.0,86,0.00,,,0.00,LWC V1.00 B64,2013-03-13 19:22:00,
2013-03-13 12:27:00,58.4,54.2,30.15,NNE,17,10.0,14.0,86,0.00,,,0.00,LWC V1.00 B64,2013-03-13 19:27:00,
2013-03-13 12:32:00,58.4,54.2,30.15,NNE,13,13.0,15.0,86,0.00,,,0.00,LWC V1.00 B64,2013-03-13 19:32:00,
2013-03-13 12:37:00,58.8,54.6,30.15,NNW,343,9.0,15.0,86,0.00,,,0.00,LWC V1.00 B64,2013-03-13 19:37:00,
2013-03-13 12:42:00,59.1,54.6,30.16,North,10,15.0,15.0,85,0.00,,,0.00,LWC V1.00 B64,2013-03-13 19:42:00,
2013-03-13 12:48:00,58.5,54.0,30.15,North,0,10.0,13.0,85,0.00,,,0.00,LWC V1.00 B64,2013-03-13 19:48:00,
2013-03-13 12:53:00,59.1,54.3,30.15,NW,318,11.0,15.0,84,0.00,,,0.00,LWC V1.00 B64,2013-03-13 19:53:00,
2013-03-13 12:59:00,59.0,54.2,30.15,NNW,329,7.0,14.0,84,0.00,,,0.00,LWC V1.00 B64,2013-03-13 19:59:00,
2013-03-13 13:04:00,59.0,54.2,30.15,NNW,328,9.0,14.0,84,0.00,,,0.00,LWC V1.00 B64,2013-03-13 20:04:00,
2013-03-13 13:09:00,59.8,55.0,30.15,NNW,334,10.0,12.0,84,0.00,,,0.00,LWC V1.00 B64,2013-03-13 20:09:00,
2013-03-13 13:14:00,60.3,54.8,30.15,North,0,6.0,9.0,82,0.00,,,0.00,LWC V1.00 B64,2013-03-13 20:14:00,
2013-03-13 13:19:00,60.8,55.6,30.15,NNW,348,7.0,13.0,83,0.00,,,0.00,LWC V1.00 B64,2013-03-13 20:19:00,
2013-03-13 13:24:00,61.1,55.6,30.15,North,349,9.0,13.0,82,0.00,,,0.00,LWC V1.00 B64,2013-03-13 20:24:00,
2013-03-13 13:29:00,61.3,55.8,30.14,NNW,333,9.0,12.0,82,0.00,,,0.00,LWC V1.00 B64,2013-03-13 20:29:00,
2013-03-13 13:34:00,60.8,54.9,30.14,NNW,331,13.0,17.0,81,0.00,,,0.00,LWC V1.00 B64,2013-03-13 20:34:00,
2013-03-13 13:39:00,60.1,54.6,30.14,North,5,10.0,12.0,82,0.00,,,0.00,LWC V1.00 B64,2013-03-13 20:39:00,
2013-03-13 13:44:00,60.1,54.6,30.14,NNW,346,9.0,12.0,82,0.00,,,0.00,LWC V1.00 B64,2013-03-13 20:44:00,
2013-03-13 13:49:00,60.2,54.7,30.13,North,0,8.0,11.0,82,0.00,,,0.00,LWC V1.00 B64,2013-03-13 20:49:00,
2013-03-13 13:54:00,60.4,54.9,30.14,NNW,344,7.0,11.0,82,0.00,,,0.00,LWC V1.00 B64,2013-03-13 20:54:00,
2013-03-13 13:59:00,59.9,54.4,30.13,NNW,330,7.0,14.0,82,0.00,,,0.00,LWC V1.00 B64,2013-03-13 20:59:00,
2013-03-13 14:04:00,59.9,54.4,30.13,North,349,2.0,10.0,82,0.00,,,0.00,LWC V1.00 B64,2013-03-13 21:04:00,
2013-03-13 14:09:00,60.1,54.9,30.13,NNE,12,2.0,7.0,83,0.00,,,0.00,LWC V1.00 B64,2013-03-13 21:09:00,
2013-03-13 14:14:00,60.9,55.4,30.12,NNW,336,4.0,7.0,82,0.00,,,0.00,LWC V1.00 B64,2013-03-13 21:14:00,
2013-03-13 14:19:00,62.1,56.2,30.12,North,5,3.0,7.0,81,0.00,,,0.00,LWC V1.00 B64,2013-03-13 21:19:00,
2013-03-13 14:24:00,62.1,55.2,30.12,NNW,329,5.0,11.0,78,0.00,,,0.00,LWC V1.00 B64,2013-03-13 21:24:00,
2013-03-13 14:29:00,62.0,55.4,30.12,NNW,339,8.0,10.0,79,0.00,,,0.00,LWC V1.00 B64,2013-03-13 21:29:00,
2013-03-13 14:34:00,62.5,55.9,30.12,North,9,5.0,9.0,79,0.00,,,0.00,LWC V1.00 B64,2013-03-13 21:34:00,
2013-03-13 14:39:00,62.9,55.6,30.12,North,350,5.0,8.0,77,0.00,,,0.00,LWC V1.00 B64,2013-03-13 21:39:00,
2013-03-13 14:44:00,63.5,55.8,30.11,North,355,6.0,9.0,76,0.00,,,0.00,LWC V1.00 B64,2013-03-13 21:44:00,
2013-03-13 14:49:00,63.9,56.2,30.11,NNE,13,5.0,12.0,76,0.00,,,0.00,LWC V1.00 B64,2013-03-13 21:49:00,
2013-03-13 14:54:00,64.1,56.4,30.11,NNW,339,7.0,7.0,76,0.00,,,0.00,LWC V1.00 B64,2013-03-13 21:54:00,
2013-03-13 14:59:00,64.7,57.0,30.11,NNW,344,3.0,8.0,76,0.00,,,0.00,LWC V1.00 B64,2013-03-13 21:59:00,
2013-03-13 15:04:00,65.5,57.7,30.11,NNW,336,5.0,7.0,76,0.00,,,0.00,LWC V1.00 B64,2013-03-13 22:04:00,
2013-03-13 15:09:00,66.6,58.4,30.11,NNW,333,2.0,7.0,75,0.00,,,0.00,LWC V1.00 B64,2013-03-13 22:09:00,
2013-03-13 15:14:00,66.9,58.3,30.11,NNW,340,3.0,6.0,74,0.00,,,0.00,LWC V1.00 B64,2013-03-13 22:14:00,
2013-03-13 15:19:00,67.5,58.1,30.11,NNW,345,4.0,5.0,72,0.00,,,0.00,LWC V1.00 B64,2013-03-13 22:19:00,
2013-03-13 15:25:00,67.8,58.0,30.10,NNW,344,2.0,6.0,71,0.00,,,0.00,LWC V1.00 B64,2013-03-13 22:25:00,
2013-03-13 15:30:00,67.8,58.0,30.10,NNW,340,4.0,6.0,71,0.00,,,0.00,LWC V1.00 B64,2013-03-13 22:30:00,
2013-03-13 15:35:00,68.2,58.4,30.10,North,355,5.0,7.0,71,0.00,,,0.00,LWC V1.00 B64,2013-03-13 22:35:00,
2013-03-13 15:40:00,68.4,58.6,30.10,North,355,4.0,7.0,71,0.00,,,0.00,LWC V1.00 B64,2013-03-13 22:40:00,
2013-03-13 15:45:00,67.7,58.7,30.10,North,0,3.0,6.0,73,0.00,,,0.00,LWC V1.00 B64,2013-03-13 22:45:00,
2013-03-13 15:50:00,67.9,58.9,30.10,North,5,5.0,6.0,73,0.00,,,0.00,LWC V1.00 B64,2013-03-13 22:50:00,
2013-03-13 15:55:00,67.7,58.3,30.09,NNW,348,8.0,11.0,72,0.00,,,0.00,LWC V1.00 B64,2013-03-13 22:55:00,
2013-03-13 16:00:00,67.0,58.0,30.09,NNW,333,6.0,10.0,73,0.00,,,0.00,LWC V1.00 B64,2013-03-13 23:00:00,
2013-03-13 16:05:00,66.6,58.0,30.09,North,0,9.0,11.0,74,0.00,,,0.00,LWC V1.00 B64,2013-03-13 23:05:00,
2013-03-13 16:10:00,65.3,56.0,30.09,NNW,348,17.0,17.0,72,0.00,,,0.00,LWC V1.00 B64,2013-03-13 23:10:00,
2013-03-13 16:15:00,62.5,54.1,30.10,North,0,12.0,19.0,74,0.00,,,0.00,LWC V1.00 B64,2013-03-13 23:15:00,
2013-03-13 16:20:00,59.6,52.7,30.10,NNW,329,15.0,21.0,78,0.00,,,0.00,LWC V1.00 B64,2013-03-13 23:20:00,
2013-03-13 16:26:00,58.1,52.3,30.10,NNW,345,11.0,17.0,81,0.00,,,0.00,LWC V1.00 B64,2013-03-13 23:26:00,
2013-03-13 16:31:00,57.1,51.7,30.10,NNE,24,10.0,17.0,82,0.00,,,0.00,LWC V1.00 B64,2013-03-13 23:31:00,
2013-03-13 16:36:00,55.9,51.1,30.10,NW,325,11.0,16.0,84,0.00,,,0.00,LWC V1.00 B64,2013-03-13 23:36:00,
2013-03-13 16:41:00,55.1,51.0,30.10,NNW,332,13.0,19.0,86,0.00,,,0.00,LWC V1.00 B64,2013-03-13 23:41:00,
2013-03-13 16:46:00,55.0,50.9,30.10,North,9,11.0,19.0,86,0.00,,,0.00,LWC V1.00 B64,2013-03-13 23:46:00,
2013-03-13 16:51:00,54.9,51.1,30.10,NNW,345,4.0,15.0,87,0.00,,,0.00,LWC V1.00 B64,2013-03-13 23:51:00,
2013-03-13 16:57:00,54.5,50.7,30.10,NNW,342,10.0,17.0,87,0.00,,,0.00,LWC V1.00 B64,2013-03-13 23:57:00,
2013-03-13 17:02:00,54.4,50.9,30.10,North,355,6.0,16.0,88,0.00,,,0.00,LWC V1.00 B64,2013-03-14 00:02:00,
2013-03-13 17:07:00,54.2,50.7,30.10,North,350,10.0,19.0,88,0.00,,,0.00,LWC V1.00 B64,2013-03-14 00:07:00,
2013-03-13 17:12:00,54.0,50.5,30.10,NNE,12,11.0,16.0,88,0.00,,,0.00,LWC V1.00 B64,2013-03-14 00:12:00,
2013-03-13 17:17:00,53.6,50.4,30.10,NNW,337,13.0,16.0,89,0.00,,,0.00,LWC V1.00 B64,2013-03-14 00:17:00,
2013-03-13 17:22:00,53.6,50.4,30.10,NNE,32,6.0,14.0,89,0.00,,,0.00,LWC V1.00 B64,2013-03-14 00:22:00,
2013-03-13 17:27:00,53.7,50.5,30.10,NNE,14,8.0,12.0,89,0.00,,,0.00,LWC V1.00 B64,2013-03-14 00:27:00,
2013-03-13 17:33:00,54.0,50.5,30.11,North,0,6.0,15.0,88,0.00,,,0.00,LWC V1.00 B64,2013-03-14 00:33:00,
2013-03-13 17:38:00,54.1,50.6,30.11,NNW,338,9.0,11.0,88,0.00,,,0.00,LWC V1.00 B64,2013-03-14 00:38:00,
2013-03-13 17:43:00,53.9,50.1,30.11,North,355,11.0,16.0,87,0.00,,,0.00,LWC V1.00 B64,2013-03-14 00:43:00,
2013-03-13 17:48:00,53.6,50.1,30.11,NNW,344,5.0,13.0,88,0.00,,,0.00,LWC V1.00 B64,2013-03-14 00:48:00,
2013-03-13 17:53:00,53.4,49.9,30.11,North,350,11.0,11.0,88,0.00,,,0.00,LWC V1.00 B64,2013-03-14 00:53:00,
2013-03-13 17:58:00,52.8,49.3,30.10,NNW,327,6.0,12.0,88,0.00,,,0.00,LWC V1.00 B64,2013-03-14 00:58:00,
2013-03-13 18:03:00,52.6,49.5,30.10,NNW,344,5.0,11.0,89,0.00,,,0.00,LWC V1.00 B64,2013-03-14 01:03:00,
2013-03-13 18:08:00,52.5,49.4,30.10,NNW,338,8.0,10.0,89,0.00,,,0.00,LWC V1.00 B64,2013-03-14 01:08:00,
2013-03-13 18:13:00,52.2,49.4,30.10,North,350,2.0,9.0,90,0.00,,,0.00,LWC V1.00 B64,2013-03-14 01:13:00,
2013-03-13 18:18:00,52.0,49.2,30.10,North,5,4.0,10.0,90,0.00,,,0.00,LWC V1.00 B64,2013-03-14 01:18:00,
2013-03-13 18:23:00,51.5,48.7,30.11,North,355,4.0,10.0,90,0.00,,,0.00,LWC V1.00 B64,2013-03-14 01:23:00,
2013-03-13 18:28:00,51.3,48.8,30.11,NNW,338,2.0,11.0,91,0.00,,,0.00,LWC V1.00 B64,2013-03-14 01:28:00,
2013-03-13 18:33:00,51.1,48.6,30.11,NNW,331,2.0,6.0,91,0.00,,,0.00,LWC V1.00 B64,2013-03-14 01:33:00,
2013-03-13 18:39:00,50.8,48.3,30.11,NNW,338,5.0,7.0,91,0.00,,,0.00,LWC V1.00 B64,2013-03-14 01:39:00,
2013-03-13 18:44:00,50.6,48.4,30.10,NNW,333,2.0,5.0,92,0.00,,,0.00,LWC V1.00 B64,2013-03-14 01:44:00,
2013-03-13 18:49:00,50.4,48.2,30.11,NNW,334,2.0,4.0,92,0.00,,,0.00,LWC V1.00 B64,2013-03-14 01:49:00,
2013-03-13 18:54:00,50.2,48.0,30.10,NNW,337,0.0,4.0,92,0.00,,,0.00,LWC V1.00 B64,2013-03-14 01:54:00,
2013-03-13 18:59:00,50.1,47.9,30.10,NNW,337,0.0,1.0,92,0.00,,,0.00,LWC V1.00 B64,2013-03-14 01:59:00,
2013-03-13 19:04:00,50.0,48.1,30.10,NNW,337,0.0,1.0,93,0.00,,,0.00,LWC V1.00 B64,2013-03-14 02:04:00,
2013-03-13 19:09:00,50.0,48.1,30.10,NNW,337,0.0,0.0,93,0.00,,,0.00,LWC V1.00 B64,2013-03-14 02:09:00,
2013-03-13 19:14:00,49.9,48.0,30.10,NNW,337,0.0,0.0,93,0.00,,,0.00,LWC V1.00 B64,2013-03-14 02:14:00,
2013-03-13 19:19:00,49.8,47.9,30.10,NNW,337,0.0,0.0,93,0.00,,,0.00,LWC V1.00 B64,2013-03-14 02:19:00,
2013-03-13 19:24:00,49.7,47.8,30.10,NNW,337,0.0,0.0,93,0.00,,,0.00,LWC V1.00 B64,2013-03-14 02:24:00,
2013-03-13 19:29:00,49.6,47.7,30.10,NNW,337,0.0,0.0,93,0.00,,,0.00,LWC V1.00 B64,2013-03-14 02:29:00,
2013-03-13 19:34:00,49.5,47.6,30.10,NNW,337,0.0,0.0,93,0.00,,,0.00,LWC V1.00 B64,2013-03-14 02:34:00,
2013-03-13 19:39:00,49.4,47.5,30.10,NNW,337,0.0,0.0,93,0.00,,,0.00,LWC V1.00 B64,2013-03-14 02:39:00,
2013-03-13 19:44:00,49.3,47.4,30.10,NNW,337,0.0,1.0,93,0.00,,,0.00,LWC V1.00 B64,2013-03-14 02:44:00,
2013-03-13 19:49:00,49.2,47.3,30.10,NNW,337,0.0,0.0,93,0.00,,,0.00,LWC V1.00 B64,2013-03-14 02:49:00,
2013-03-13 19:54:00,49.0,47.1,30.10,NNW,337,0.0,0.0,93,0.00,,,0.00,LWC V1.00 B64,2013-03-14 02:54:00,
2013-03-13 19:59:00,48.9,47.0,30.10,NNW,337,0.0,0.0,93,0.00,,,0.00,LWC V1.00 B64,2013-03-14 02:59:00,
2013-03-13 20:04:00,48.8,46.9,30.10,NNW,337,0.0,0.0,93,0.00,,,0.00,LWC V1.00 B64,2013-03-14 03:04:00,
2013-03-13 20:09:00,48.7,46.8,30.10,NNW,337,0.0,1.0,93,0.00,,,0.00,LWC V1.00 B64,2013-03-14 03:09:00,
2013-03-13 20:14:00,48.5,46.6,30.10,NNW,337,0.0,0.0,93,0.00,,,0.00,LWC V1.00 B64,2013-03-14 03:14:00,
2013-03-13 20:19:00,48.1,46.2,30.11,NNW,337,1.0,2.0,93,0.00,,,0.00,LWC V1.00 B64,2013-03-14 03:19:00,
2013-03-13 20:24:00,48.4,46.8,30.11,NNW,337,0.0,1.0,94,0.00,,,0.00,LWC V1.00 B64,2013-03-14 03:24:00,
2013-03-13 20:29:00,48.4,46.8,30.11,NNW,337,0.0,1.0,94,0.00,,,0.00,LWC V1.00 B64,2013-03-14 03:29:00,
2013-03-13 20:34:00,48.1,46.5,30.11,NNW,337,0.0,0.0,94,0.00,,,0.00,LWC V1.00 B64,2013-03-14 03:34:00,
2013-03-13 20:39:00,48.0,46.4,30.11,NNW,337,0.0,0.0,94,0.00,,,0.00,LWC V1.00 B64,2013-03-14 03:39:00,
2013-03-13 20:44:00,47.8,46.2,30.11,NNW,337,0.0,0.0,94,0.00,,,0.00,LWC V1.00 B64,2013-03-14 03:44:00,
2013-03-13 20:49:00,47.8,46.2,30.11,NNW,337,0.0,0.0,94,0.00,,,0.00,LWC V1.00 B64,2013-03-14 03:49:00,
2013-03-13 20:54:00,47.7,46.1,30.11,NNW,337,0.0,0.0,94,0.00,,,0.00,LWC V1.00 B64,2013-03-14 03:54:00,
2013-03-13 20:59:00,47.7,46.1,30.11,NNW,337,0.0,0.0,94,0.00,,,0.00,LWC V1.00 B64,2013-03-14 03:59:00,
2013-03-13 21:00:00,47.7,46.1,30.11,NNW,337,0.0,0.0,94,0.00,,,0.00,LWC V1.00 B64,2013-03-14 04:00:00,
2013-03-13 21:01:00,47.7,46.1,30.11,NNW,337,0.0,0.0,94,0.00,,,0.00,LWC V1.00 B64,2013-03-14 04:01:00,
2013-03-13 21:02:00,47.6,46.0,30.11,NNW,337,0.0,0.0,94,0.00,,,0.00,LWC V1.00 B64,2013-03-14 04:02:00,
2013-03-13 21:07:00,47.6,46.0,30.12,NNW,337,0.0,0.0,94,0.00,,,0.00,LWC V1.00 B64,2013-03-14 04:07:00,
2013-03-13 21:12:00,47.7,46.3,30.12,NNW,337,0.0,0.0,95,0.00,,,0.00,LWC V1.00 B64,2013-03-14 04:12:00,
2013-03-13 21:17:00,48.0,46.6,30.12,NNW,337,0.0,0.0,95,0.00,,,0.00,LWC V1.00 B64,2013-03-14 04:17:00,
2013-03-13 21:22:00,48.1,46.7,30.12,NNW,337,0.0,0.0,95,0.00,,,0.00,LWC V1.00 B64,2013-03-14 04:22:00,
2013-03-13 21:27:00,48.2,46.8,30.12,NNW,337,0.0,0.0,95,0.00,,,0.00,LWC V1.00 B64,2013-03-14 04:27:00,
2013-03-13 21:32:00,48.5,47.1,30.12,NNW,337,0.0,0.0,95,0.00,,,0.00,LWC V1.00 B64,2013-03-14 04:32:00,
2013-03-13 21:36:00,48.5,47.1,30.12,NNW,337,0.0,0.0,95,0.00,,,0.00,LWC V1.00 B64,2013-03-14 04:36:00,
2013-03-13 21:41:00,48.5,47.1,30.12,NNW,337,1.0,1.0,95,0.00,,,0.00,LWC V1.00 B64,2013-03-14 04:41:00,
2013-03-13 21:46:00,48.4,47.0,30.12,NNW,337,0.0,0.0,95,0.00,,,0.00,LWC V1.00 B64,2013-03-14 04:46:00,
2013-03-13 21:51:00,48.5,47.1,30.12,NNW,337,0.0,0.0,95,0.00,,,0.00,LWC V1.00 B64,2013-03-14 04:51:00,
2013-03-13 21:56:00,48.5,47.1,30.12,NNW,337,0.0,0.0,95,0.00,,,0.00,LWC V1.00 B64,2013-03-14 04:56:00,
2013-03-13 22:02:00,48.4,47.0,30.13,NNW,337,0.0,0.0,95,0.00,,,0.00,LWC V1.00 B64,2013-03-14 05:02:00,
2013-03-13 22:07:00,48.5,47.1,30.13,NNW,337,0.0,0.0,95,0.00,,,0.00,LWC V1.00 B64,2013-03-14 05:07:00,
2013-03-13 22:12:00,48.4,47.0,30.13,NNW,337,0.0,0.0,95,0.00,,,0.00,LWC V1.00 B64,2013-03-14 05:12:00,
2013-03-13 22:17:00,48.4,47.0,30.13,NNW,337,0.0,0.0,95,0.00,,,0.00,LWC V1.00 B64,2013-03-14 05:17:00,
2013-03-13 22:22:00,48.4,47.0,30.13,NNW,337,0.0,0.0,95,0.00,,,0.00,LWC V1.00 B64,2013-03-14 05:22:00,
2013-03-13 22:27:00,48.4,47.0,30.13,NNW,337,0.0,1.0,95,0.00,,,0.00,LWC V1.00 B64,2013-03-14 05:27:00,
2013-03-13 22:32:00,48.5,47.4,30.13,NNW,337,0.0,1.0,96,0.00,,,0.00,LWC V1.00 B64,2013-03-14 05:32:00,
2013-03-13 22:37:00,48.5,47.4,30.13,NNW,337,0.0,1.0,96,0.00,,,0.00,LWC V1.00 B64,2013-03-14 05:37:00,
2013-03-13 22:42:00,48.4,47.0,30.14,NNW,337,0.0,0.0,95,0.00,,,0.00,LWC V1.00 B64,2013-03-14 05:42:00,
2013-03-13 22:47:00,48.3,47.2,30.14,NNW,337,0.0,0.0,96,0.00,,,0.00,LWC V1.00 B64,2013-03-14 05:47:00,
2013-03-13 22:52:00,48.2,46.8,30.14,NNW,337,0.0,0.0,95,0.00,,,0.00,LWC V1.00 B64,2013-03-14 05:52:00,
2013-03-13 22:57:00,48.1,46.7,30.14,NNW,337,0.0,0.0,95,0.00,,,0.00,LWC V1.00 B64,2013-03-14 05:57:00,
2013-03-13 23:02:00,47.9,46.8,30.14,NNW,337,0.0,3.0,96,0.00,,,0.00,LWC V1.00 B64,2013-03-14 06:02:00,
2013-03-13 23:07:00,47.8,46.4,30.13,NNW,337,0.0,1.0,95,0.00,,,0.00,LWC V1.00 B64,2013-03-14 06:07:00,
2013-03-13 23:12:00,47.8,46.7,30.13,NNW,337,0.0,0.0,96,0.00,,,0.00,LWC V1.00 B64,2013-03-14 06:12:00,
2013-03-13 23:17:00,47.7,46.6,30.13,NNW,337,0.0,2.0,96,0.00,,,0.00,LWC V1.00 B64,2013-03-14 06:17:00,
2013-03-13 23:22:00,47.6,46.5,30.13,NNW,337,0.0,1.0,96,0.00,,,0.00,LWC V1.00 B64,2013-03-14 06:22:00,
2013-03-13 23:27:00,47.6,46.5,30.13,NNW,337,0.0,0.0,96,0.00,,,0.00,LWC V1.00 B64,2013-03-14 06:27:00,
2013-03-13 23:32:00,47.4,46.3,30.14,NNW,337,0.0,2.0,96,0.00,,,0.00,LWC V1.00 B64,2013-03-14 06:32:00,
2013-03-13 23:38:00,47.4,46.3,30.14,NNW,337,0.0,2.0,96,0.00,,,0.00,LWC V1.00 B64,2013-03-14 06:38:00,
2013-03-13 23:43:00,47.4,46.3,30.14,NNW,337,1.0,2.0,96,0.00,,,0.00,LWC V1.00 B64,2013-03-14 06:43:00,
2013-03-13 23:48:00,47.4,46.3,30.14,NNW,337,0.0,1.0,96,0.00,,,0.00,LWC V1.00 B64,2013-03-14 06:48:00,
2013-03-13 23:53:00,47.4,46.3,30.14,NNW,337,0.0,1.0,96,0.00,,,0.00,LWC V1.00 B64,2013-03-14 06:53:00,
2013-03-13 23:58:00,47.3,46.2,30.14,NNW,337,0.0,3.0,96,0.00,,,0.00,LWC V1.00 B64,2013-03-14 06:58:00,